sensor_id;sensor_type;location;lat;lon;timestamp;temperature;humidity
3406;DHT22;10008;48.682;9.016;2023-11-21T00:00:49;7.70;99.90
3406;DHT22;10008;48.682;9.016;2023-11-21T00:03:15;7.80;99.90
3406;DHT22;10008;48.682;9.016;2023-11-21T00:05:43;7.80;99.90
3406;DHT22;10008;48.682;9.016;2023-11-21T00:08:09;7.80;99.90
3406;DHT22;10008;48.682;9.016;2023-11-21T00:10:36;7.80;99.90
3406;DHT22;10008;48.682;9.016;2023-11-21T00:13:04;7.80;99.90
3406;DHT22;10008;48.682;9.016;2023-11-21T00:15:30;7.90;99.90
3406;DHT22;10008;48.682;9.016;2023-11-21T00:17:55;7.90;99.90
3406;DHT22;10008;48.682;9.016;2023-11-21T00:20:21;7.90;99.90
3406;DHT22;10008;48.682;9.016;2023-11-21T00:22:47;7.90;99.90
3406;DHT22;10008;48.682;9.016;2023-11-21T00:25:13;7.90;99.90
3406;DHT22;10008;48.682;9.016;2023-11-21T00:27:41;7.90;99.90
3406;DHT22;10008;48.682;9.016;2023-11-21T00:30:07;7.80;99.90
3406;DHT22;10008;48.682;9.016;2023-11-21T00:32:36;7.80;99.90
3406;DHT22;10008;48.682;9.016;2023-11-21T00:35:02;7.70;99.90
3406;DHT22;10008;48.682;9.016;2023-11-21T00:37:28;7.70;99.90
3406;DHT22;10008;48.682;9.016;2023-11-21T00:39:54;7.70;99.90
3406;DHT22;10008;48.682;9.016;2023-11-21T00:42:20;7.70;99.90
3406;DHT22;10008;48.682;9.016;2023-11-21T00:44:47;7.70;99.90
3406;DHT22;10008;48.682;9.016;2023-11-21T00:47:12;7.70;99.90
3406;DHT22;10008;48.682;9.016;2023-11-21T00:49:39;7.70;99.90
3406;DHT22;10008;48.682;9.016;2023-11-21T00:52:06;7.70;99.90
3406;DHT22;10008;48.682;9.016;2023-11-21T00:54:32;7.70;99.90
3406;DHT22;10008;48.682;9.016;2023-11-21T00:56:58;7.70;99.90
3406;DHT22;10008;48.682;9.016;2023-11-21T00:59:24;7.70;99.90
3406;DHT22;10008;48.682;9.016;2023-11-21T01:01:50;7.70;99.90
3406;DHT22;10008;48.682;9.016;2023-11-21T01:04:15;7.70;99.90
3406;DHT22;10008;48.682;9.016;2023-11-21T01:06:41;7.70;99.90
3406;DHT22;10008;48.682;9.016;2023-11-21T01:09:08;7.70;99.90
3406;DHT22;10008;48.682;9.016;2023-11-21T01:11:35;7.70;99.90
3406;DHT22;10008;48.682;9.016;2023-11-21T01:14:03;7.70;99.90
3406;DHT22;10008;48.682;9.016;2023-11-21T01:16:30;7.70;99.90
3406;DHT22;10008;48.682;9.016;2023-11-21T01:18:59;7.70;99.90
3406;DHT22;10008;48.682;9.016;2023-11-21T01:21:25;7.70;99.90
3406;DHT22;10008;48.682;9.016;2023-11-21T01:23:50;7.70;99.90
3406;DHT22;10008;48.682;9.016;2023-11-21T01:26:16;7.70;99.90
3406;DHT22;10008;48.682;9.016;2023-11-21T01:28:42;7.70;99.90
3406;DHT22;10008;48.682;9.016;2023-11-21T01:31:07;7.70;99.90
3406;DHT22;10008;48.682;9.016;2023-11-21T01:33:33;7.70;99.90
3406;DHT22;10008;48.682;9.016;2023-11-21T01:35:59;7.70;99.90
3406;DHT22;10008;48.682;9.016;2023-11-21T01:38:25;7.60;99.90
3406;DHT22;10008;48.682;9.016;2023-11-21T01:40:51;7.70;99.90
3406;DHT22;10008;48.682;9.016;2023-11-21T01:43:17;7.60;99.90
3406;DHT22;10008;48.682;9.016;2023-11-21T01:45:44;7.60;99.90
3406;DHT22;10008;48.682;9.016;2023-11-21T01:48:11;7.60;99.90
3406;DHT22;10008;48.682;9.016;2023-11-21T01:50:38;7.60;99.90
3406;DHT22;10008;48.682;9.016;2023-11-21T01:53:04;7.60;99.90
3406;DHT22;10008;48.682;9.016;2023-11-21T01:55:33;7.50;99.90
3406;DHT22;10008;48.682;9.016;2023-11-21T01:57:59;7.50;99.90
3406;DHT22;10008;48.682;9.016;2023-11-21T02:00:25;7.50;99.90
3406;DHT22;10008;48.682;9.016;2023-11-21T02:02:55;7.50;99.90
3406;DHT22;10008;48.682;9.016;2023-11-21T02:05:22;7.50;99.90
3406;DHT22;10008;48.682;9.016;2023-11-21T02:07:48;7.60;99.90
3406;DHT22;10008;48.682;9.016;2023-11-21T02:10:15;7.60;99.90
3406;DHT22;10008;48.682;9.016;2023-11-21T02:12:42;7.60;99.90
3406;DHT22;10008;48.682;9.016;2023-11-21T02:15:10;7.60;99.90
3406;DHT22;10008;48.682;9.016;2023-11-21T02:17:42;7.60;99.90
3406;DHT22;10008;48.682;9.016;2023-11-21T02:20:13;7.60;99.90
3406;DHT22;10008;48.682;9.016;2023-11-21T02:22:53;7.60;99.90
3406;DHT22;10008;48.682;9.016;2023-11-21T02:25:30;7.60;99.90
3406;DHT22;10008;48.682;9.016;2023-11-21T02:27:57;7.60;99.90
3406;DHT22;10008;48.682;9.016;2023-11-21T02:30:23;7.60;99.90
3406;DHT22;10008;48.682;9.016;2023-11-21T02:32:59;7.60;99.90
3406;DHT22;10008;48.682;9.016;2023-11-21T02:35:26;7.60;99.90
3406;DHT22;10008;48.682;9.016;2023-11-21T02:37:52;7.50;99.90
3406;DHT22;10008;48.682;9.016;2023-11-21T02:40:18;7.50;99.90
3406;DHT22;10008;48.682;9.016;2023-11-21T02:42:46;7.50;99.90
3406;DHT22;10008;48.682;9.016;2023-11-21T02:45:14;7.50;99.90
3406;DHT22;10008;48.682;9.016;2023-11-21T02:47:42;7.50;99.90
3406;DHT22;10008;48.682;9.016;2023-11-21T02:50:09;7.50;99.90
3406;DHT22;10008;48.682;9.016;2023-11-21T02:52:35;7.60;99.90
3406;DHT22;10008;48.682;9.016;2023-11-21T02:55:02;7.50;99.90
3406;DHT22;10008;48.682;9.016;2023-11-21T02:57:28;7.60;99.90
3406;DHT22;10008;48.682;9.016;2023-11-21T02:59:54;7.50;99.90
3406;DHT22;10008;48.682;9.016;2023-11-21T03:02:20;7.50;99.90
3406;DHT22;10008;48.682;9.016;2023-11-21T03:04:46;7.50;99.90
3406;DHT22;10008;48.682;9.016;2023-11-21T03:07:13;7.50;99.90
3406;DHT22;10008;48.682;9.016;2023-11-21T03:09:39;7.50;99.90
3406;DHT22;10008;48.682;9.016;2023-11-21T03:12:05;7.50;99.90
3406;DHT22;10008;48.682;9.016;2023-11-21T03:14:31;7.40;99.90
3406;DHT22;10008;48.682;9.016;2023-11-21T03:16:57;7.40;99.90
3406;DHT22;10008;48.682;9.016;2023-11-21T03:19:23;7.40;99.90
3406;DHT22;10008;48.682;9.016;2023-11-21T03:21:49;7.40;99.90
3406;DHT22;10008;48.682;9.016;2023-11-21T03:24:15;7.40;99.90
3406;DHT22;10008;48.682;9.016;2023-11-21T03:26:45;7.40;99.90
3406;DHT22;10008;48.682;9.016;2023-11-21T03:29:12;7.40;99.90
3406;DHT22;10008;48.682;9.016;2023-11-21T03:31:38;7.40;99.90
3406;DHT22;10008;48.682;9.016;2023-11-21T03:34:04;7.50;99.90
3406;DHT22;10008;48.682;9.016;2023-11-21T03:36:30;7.50;99.90
3406;DHT22;10008;48.682;9.016;2023-11-21T03:38:56;7.50;99.90
3406;DHT22;10008;48.682;9.016;2023-11-21T03:41:21;7.50;99.90
3406;DHT22;10008;48.682;9.016;2023-11-21T03:43:47;7.50;99.90
3406;DHT22;10008;48.682;9.016;2023-11-21T03:46:13;7.60;99.90
3406;DHT22;10008;48.682;9.016;2023-11-21T03:48:39;7.60;99.90
3406;DHT22;10008;48.682;9.016;2023-11-21T03:51:05;7.60;99.90
3406;DHT22;10008;48.682;9.016;2023-11-21T03:53:33;7.60;99.90
3406;DHT22;10008;48.682;9.016;2023-11-21T03:56:02;7.50;99.90
3406;DHT22;10008;48.682;9.016;2023-11-21T03:58:29;7.50;99.90
3406;DHT22;10008;48.682;9.016;2023-11-21T04:00:55;7.60;99.90
3406;DHT22;10008;48.682;9.016;2023-11-21T04:03:21;7.60;99.90
3406;DHT22;10008;48.682;9.016;2023-11-21T04:05:46;7.60;99.90
3406;DHT22;10008;48.682;9.016;2023-11-21T04:08:12;7.50;99.90
3406;DHT22;10008;48.682;9.016;2023-11-21T04:10:38;7.60;99.90
3406;DHT22;10008;48.682;9.016;2023-11-21T04:13:05;7.60;99.90
3406;DHT22;10008;48.682;9.016;2023-11-21T04:15:32;7.60;99.90
3406;DHT22;10008;48.682;9.016;2023-11-21T04:17:58;7.60;99.90
3406;DHT22;10008;48.682;9.016;2023-11-21T04:20:24;7.70;99.90
3406;DHT22;10008;48.682;9.016;2023-11-21T04:22:50;7.70;99.90
3406;DHT22;10008;48.682;9.016;2023-11-21T04:25:16;7.70;99.90
3406;DHT22;10008;48.682;9.016;2023-11-21T04:27:43;7.70;99.90
3406;DHT22;10008;48.682;9.016;2023-11-21T04:30:10;7.70;99.90
3406;DHT22;10008;48.682;9.016;2023-11-21T04:32:36;7.70;99.90
3406;DHT22;10008;48.682;9.016;2023-11-21T04:35:02;7.70;99.90
3406;DHT22;10008;48.682;9.016;2023-11-21T04:37:29;7.70;99.90
3406;DHT22;10008;48.682;9.016;2023-11-21T04:39:55;7.70;99.90
3406;DHT22;10008;48.682;9.016;2023-11-21T04:42:21;7.80;99.90
3406;DHT22;10008;48.682;9.016;2023-11-21T04:44:47;7.80;99.90
3406;DHT22;10008;48.682;9.016;2023-11-21T04:47:13;7.80;99.90
3406;DHT22;10008;48.682;9.016;2023-11-21T04:49:42;7.80;99.90
3406;DHT22;10008;48.682;9.016;2023-11-21T04:52:08;7.80;99.90
3406;DHT22;10008;48.682;9.016;2023-11-21T04:54:35;7.80;99.90
3406;DHT22;10008;48.682;9.016;2023-11-21T04:57:01;7.80;99.90
3406;DHT22;10008;48.682;9.016;2023-11-21T04:59:27;7.90;99.90
3406;DHT22;10008;48.682;9.016;2023-11-21T05:01:53;7.90;99.90
3406;DHT22;10008;48.682;9.016;2023-11-21T05:04:20;7.90;99.90
3406;DHT22;10008;48.682;9.016;2023-11-21T05:06:48;7.90;99.90
3406;DHT22;10008;48.682;9.016;2023-11-21T05:09:14;7.90;99.90
3406;DHT22;10008;48.682;9.016;2023-11-21T05:11:41;7.80;99.90
3406;DHT22;10008;48.682;9.016;2023-11-21T05:14:07;7.90;99.90
3406;DHT22;10008;48.682;9.016;2023-11-21T05:16:34;7.80;99.90
3406;DHT22;10008;48.682;9.016;2023-11-21T05:19:00;7.80;99.90
3406;DHT22;10008;48.682;9.016;2023-11-21T05:21:30;7.80;99.90
3406;DHT22;10008;48.682;9.016;2023-11-21T05:23:58;7.70;99.90
3406;DHT22;10008;48.682;9.016;2023-11-21T05:26:24;7.70;99.90
3406;DHT22;10008;48.682;9.016;2023-11-21T05:28:50;7.70;99.90
3406;DHT22;10008;48.682;9.016;2023-11-21T05:31:16;7.60;99.90
3406;DHT22;10008;48.682;9.016;2023-11-21T05:33:42;7.60;99.90
3406;DHT22;10008;48.682;9.016;2023-11-21T05:36:08;7.50;99.90
3406;DHT22;10008;48.682;9.016;2023-11-21T05:38:36;7.50;99.90
3406;DHT22;10008;48.682;9.016;2023-11-21T05:41:02;7.50;99.90
3406;DHT22;10008;48.682;9.016;2023-11-21T05:43:29;7.50;99.90
3406;DHT22;10008;48.682;9.016;2023-11-21T05:45:56;7.40;99.90
3406;DHT22;10008;48.682;9.016;2023-11-21T05:48:22;7.50;99.90
3406;DHT22;10008;48.682;9.016;2023-11-21T05:50:48;7.50;99.90
3406;DHT22;10008;48.682;9.016;2023-11-21T05:53:15;7.60;99.90
3406;DHT22;10008;48.682;9.016;2023-11-21T05:55:41;7.50;99.90
3406;DHT22;10008;48.682;9.016;2023-11-21T05:58:08;7.50;99.90
3406;DHT22;10008;48.682;9.016;2023-11-21T06:00:33;7.50;99.90
3406;DHT22;10008;48.682;9.016;2023-11-21T06:02:59;7.60;99.90
3406;DHT22;10008;48.682;9.016;2023-11-21T06:05:26;7.60;99.90
3406;DHT22;10008;48.682;9.016;2023-11-21T06:07:55;7.60;99.90
3406;DHT22;10008;48.682;9.016;2023-11-21T06:10:24;7.60;99.90
3406;DHT22;10008;48.682;9.016;2023-11-21T06:12:50;7.60;99.90
3406;DHT22;10008;48.682;9.016;2023-11-21T06:15:17;7.60;99.90
3406;DHT22;10008;48.682;9.016;2023-11-21T06:17:45;7.60;99.90
3406;DHT22;10008;48.682;9.016;2023-11-21T06:20:15;7.60;99.90
3406;DHT22;10008;48.682;9.016;2023-11-21T06:22:45;7.50;99.90
3406;DHT22;10008;48.682;9.016;2023-11-21T06:25:12;7.50;99.90
3406;DHT22;10008;48.682;9.016;2023-11-21T06:27:43;7.50;99.90
3406;DHT22;10008;48.682;9.016;2023-11-21T06:30:13;7.50;99.90
3406;DHT22;10008;48.682;9.016;2023-11-21T06:32:41;7.60;99.90
3406;DHT22;10008;48.682;9.016;2023-11-21T06:35:07;7.60;99.90
3406;DHT22;10008;48.682;9.016;2023-11-21T06:37:35;7.70;99.90
3406;DHT22;10008;48.682;9.016;2023-11-21T06:40:02;7.70;99.90
3406;DHT22;10008;48.682;9.016;2023-11-21T06:42:29;7.70;99.90
3406;DHT22;10008;48.682;9.016;2023-11-21T06:44:56;7.80;99.90
3406;DHT22;10008;48.682;9.016;2023-11-21T06:47:23;7.80;99.90
3406;DHT22;10008;48.682;9.016;2023-11-21T06:49:53;7.80;99.90
3406;DHT22;10008;48.682;9.016;2023-11-21T06:52:20;7.80;99.90
3406;DHT22;10008;48.682;9.016;2023-11-21T06:54:47;7.80;99.90
3406;DHT22;10008;48.682;9.016;2023-11-21T06:57:13;7.80;99.90
3406;DHT22;10008;48.682;9.016;2023-11-21T06:59:39;7.80;99.90
3406;DHT22;10008;48.682;9.016;2023-11-21T07:02:04;7.80;99.90
3406;DHT22;10008;48.682;9.016;2023-11-21T07:04:33;8.00;99.90
3406;DHT22;10008;48.682;9.016;2023-11-21T07:06:58;8.00;99.90
3406;DHT22;10008;48.682;9.016;2023-11-21T07:09:24;8.00;99.90
3406;DHT22;10008;48.682;9.016;2023-11-21T07:11:52;8.00;99.90
3406;DHT22;10008;48.682;9.016;2023-11-21T07:14:18;8.00;99.90
3406;DHT22;10008;48.682;9.016;2023-11-21T07:16:45;8.00;99.90
3406;DHT22;10008;48.682;9.016;2023-11-21T07:19:11;7.90;99.90
3406;DHT22;10008;48.682;9.016;2023-11-21T07:21:38;7.90;99.90
3406;DHT22;10008;48.682;9.016;2023-11-21T07:24:06;7.80;99.90
3406;DHT22;10008;48.682;9.016;2023-11-21T07:26:33;7.80;99.90
3406;DHT22;10008;48.682;9.016;2023-11-21T07:28:59;7.80;99.90
3406;DHT22;10008;48.682;9.016;2023-11-21T07:31:26;7.80;99.90
3406;DHT22;10008;48.682;9.016;2023-11-21T07:33:52;7.80;99.90
3406;DHT22;10008;48.682;9.016;2023-11-21T07:36:19;7.80;99.90
3406;DHT22;10008;48.682;9.016;2023-11-21T07:38:46;7.90;99.90
3406;DHT22;10008;48.682;9.016;2023-11-21T07:41:12;7.90;99.90
3406;DHT22;10008;48.682;9.016;2023-11-21T07:43:41;7.90;99.90
3406;DHT22;10008;48.682;9.016;2023-11-21T07:46:07;7.90;99.90
3406;DHT22;10008;48.682;9.016;2023-11-21T07:48:34;8.00;99.90
3406;DHT22;10008;48.682;9.016;2023-11-21T07:51:01;7.90;99.90
3406;DHT22;10008;48.682;9.016;2023-11-21T07:53:29;7.90;99.90
3406;DHT22;10008;48.682;9.016;2023-11-21T07:55:56;8.00;99.90
3406;DHT22;10008;48.682;9.016;2023-11-21T07:58:22;8.20;99.90
3406;DHT22;10008;48.682;9.016;2023-11-21T08:00:48;8.20;99.90
3406;DHT22;10008;48.682;9.016;2023-11-21T08:03:14;8.10;99.90
3406;DHT22;10008;48.682;9.016;2023-11-21T08:05:40;8.10;99.90
3406;DHT22;10008;48.682;9.016;2023-11-21T08:08:06;8.10;99.90
3406;DHT22;10008;48.682;9.016;2023-11-21T08:10:31;8.10;99.90
3406;DHT22;10008;48.682;9.016;2023-11-21T08:12:57;8.10;99.90
3406;DHT22;10008;48.682;9.016;2023-11-21T08:15:23;8.10;99.90
3406;DHT22;10008;48.682;9.016;2023-11-21T08:17:49;8.20;99.90
3406;DHT22;10008;48.682;9.016;2023-11-21T08:20:15;8.20;99.90
3406;DHT22;10008;48.682;9.016;2023-11-21T08:22:44;8.30;99.90
3406;DHT22;10008;48.682;9.016;2023-11-21T08:25:10;8.30;99.90
3406;DHT22;10008;48.682;9.016;2023-11-21T08:27:36;8.50;99.90
3406;DHT22;10008;48.682;9.016;2023-11-21T08:30:04;8.60;99.90
3406;DHT22;10008;48.682;9.016;2023-11-21T08:32:30;8.60;99.90
3406;DHT22;10008;48.682;9.016;2023-11-21T08:34:59;8.80;99.90
3406;DHT22;10008;48.682;9.016;2023-11-21T08:37:25;8.70;99.90
3406;DHT22;10008;48.682;9.016;2023-11-21T08:39:52;9.00;99.90
3406;DHT22;10008;48.682;9.016;2023-11-21T08:42:19;9.20;99.90
3406;DHT22;10008;48.682;9.016;2023-11-21T08:44:45;9.40;99.90
3406;DHT22;10008;48.682;9.016;2023-11-21T08:47:11;9.50;99.90
3406;DHT22;10008;48.682;9.016;2023-11-21T08:49:37;9.50;99.90
3406;DHT22;10008;48.682;9.016;2023-11-21T08:52:03;9.60;99.90
3406;DHT22;10008;48.682;9.016;2023-11-21T08:54:31;9.50;99.90
3406;DHT22;10008;48.682;9.016;2023-11-21T08:56:57;9.60;99.90
3406;DHT22;10008;48.682;9.016;2023-11-21T08:59:24;9.70;99.90
3406;DHT22;10008;48.682;9.016;2023-11-21T09:01:50;9.50;99.90
3406;DHT22;10008;48.682;9.016;2023-11-21T09:04:16;9.50;99.90
3406;DHT22;10008;48.682;9.016;2023-11-21T09:06:42;9.50;99.90
3406;DHT22;10008;48.682;9.016;2023-11-21T09:09:08;9.50;99.90
3406;DHT22;10008;48.682;9.016;2023-11-21T09:11:36;9.50;99.90
3406;DHT22;10008;48.682;9.016;2023-11-21T09:14:05;9.50;99.90
3406;DHT22;10008;48.682;9.016;2023-11-21T09:16:31;9.50;99.90
3406;DHT22;10008;48.682;9.016;2023-11-21T09:18:57;9.60;99.90
3406;DHT22;10008;48.682;9.016;2023-11-21T09:21:23;9.70;99.90
3406;DHT22;10008;48.682;9.016;2023-11-21T09:23:51;9.60;99.90
3406;DHT22;10008;48.682;9.016;2023-11-21T09:26:17;9.40;99.90
3406;DHT22;10008;48.682;9.016;2023-11-21T09:28:44;9.50;99.90
3406;DHT22;10008;48.682;9.016;2023-11-21T09:31:13;9.70;99.90
3406;DHT22;10008;48.682;9.016;2023-11-21T09:33:44;9.80;99.90
3406;DHT22;10008;48.682;9.016;2023-11-21T09:36:13;9.80;99.90
3406;DHT22;10008;48.682;9.016;2023-11-21T09:38:40;9.70;99.90
3406;DHT22;10008;48.682;9.016;2023-11-21T09:43:57;9.70;99.90
3406;DHT22;10008;48.682;9.016;2023-11-21T09:46:25;9.70;99.90
3406;DHT22;10008;48.682;9.016;2023-11-21T09:48:53;9.70;99.90
3406;DHT22;10008;48.682;9.016;2023-11-21T09:51:23;9.60;99.90
3406;DHT22;10008;48.682;9.016;2023-11-21T09:53:52;9.50;99.90
3406;DHT22;10008;48.682;9.016;2023-11-21T09:56:19;9.40;99.90
3406;DHT22;10008;48.682;9.016;2023-11-21T09:58:52;9.20;99.90
3406;DHT22;10008;48.682;9.016;2023-11-21T10:01:19;9.00;99.90
3406;DHT22;10008;48.682;9.016;2023-11-21T10:03:45;8.70;99.90
3406;DHT22;10008;48.682;9.016;2023-11-21T10:06:13;8.60;99.90
3406;DHT22;10008;48.682;9.016;2023-11-21T10:08:41;8.60;99.90
3406;DHT22;10008;48.682;9.016;2023-11-21T10:11:08;8.50;99.90
3406;DHT22;10008;48.682;9.016;2023-11-21T10:13:37;8.50;99.90
3406;DHT22;10008;48.682;9.016;2023-11-21T10:16:05;8.50;99.90
3406;DHT22;10008;48.682;9.016;2023-11-21T10:18:32;8.50;99.90
3406;DHT22;10008;48.682;9.016;2023-11-21T10:21:00;8.50;99.90
3406;DHT22;10008;48.682;9.016;2023-11-21T10:23:26;8.60;99.90
3406;DHT22;10008;48.682;9.016;2023-11-21T10:25:52;8.60;99.90
3406;DHT22;10008;48.682;9.016;2023-11-21T10:28:18;8.50;99.90
3406;DHT22;10008;48.682;9.016;2023-11-21T10:30:44;8.50;99.90
3406;DHT22;10008;48.682;9.016;2023-11-21T10:33:10;8.60;99.90
3406;DHT22;10008;48.682;9.016;2023-11-21T10:35:42;8.80;99.90
3406;DHT22;10008;48.682;9.016;2023-11-21T10:38:08;8.80;99.90
3406;DHT22;10008;48.682;9.016;2023-11-21T10:40:42;8.80;99.90
3406;DHT22;10008;48.682;9.016;2023-11-21T10:43:10;8.80;99.90
3406;DHT22;10008;48.682;9.016;2023-11-21T10:45:39;8.80;99.90
3406;DHT22;10008;48.682;9.016;2023-11-21T10:48:09;8.80;99.90
3406;DHT22;10008;48.682;9.016;2023-11-21T10:50:36;8.80;99.90
3406;DHT22;10008;48.682;9.016;2023-11-21T10:53:03;8.80;99.90
3406;DHT22;10008;48.682;9.016;2023-11-21T10:55:30;8.70;99.90
3406;DHT22;10008;48.682;9.016;2023-11-21T10:57:59;8.60;99.90
3406;DHT22;10008;48.682;9.016;2023-11-21T11:00:27;8.60;99.90
3406;DHT22;10008;48.682;9.016;2023-11-21T11:02:54;8.60;99.90
3406;DHT22;10008;48.682;9.016;2023-11-21T11:05:22;8.50;99.90
3406;DHT22;10008;48.682;9.016;2023-11-21T11:07:58;8.40;99.90
3406;DHT22;10008;48.682;9.016;2023-11-21T11:10:27;8.60;99.90
3406;DHT22;10008;48.682;9.016;2023-11-21T11:12:55;8.60;99.90
3406;DHT22;10008;48.682;9.016;2023-11-21T11:15:21;8.60;99.90
3406;DHT22;10008;48.682;9.016;2023-11-21T11:17:48;8.70;99.90
3406;DHT22;10008;48.682;9.016;2023-11-21T11:20:16;8.60;99.90
3406;DHT22;10008;48.682;9.016;2023-11-21T11:28:19;8.90;99.90
3406;DHT22;10008;48.682;9.016;2023-11-21T11:31:10;8.60;99.90
3406;DHT22;10008;48.682;9.016;2023-11-21T11:38:46;8.80;99.90
3406;DHT22;10008;48.682;9.016;2023-11-21T11:41:12;8.70;99.90
3406;DHT22;10008;48.682;9.016;2023-11-21T11:43:38;8.70;99.90
3406;DHT22;10008;48.682;9.016;2023-11-21T11:46:11;8.70;99.90
3406;DHT22;10008;48.682;9.016;2023-11-21T11:48:40;8.70;99.90
3406;DHT22;10008;48.682;9.016;2023-11-21T11:51:13;8.80;99.90
3406;DHT22;10008;48.682;9.016;2023-11-21T11:53:44;8.80;99.90
3406;DHT22;10008;48.682;9.016;2023-11-21T11:58:58;8.70;99.90
3406;DHT22;10008;48.682;9.016;2023-11-21T12:01:25;8.70;99.90
3406;DHT22;10008;48.682;9.016;2023-11-21T12:06:59;8.70;99.90
3406;DHT22;10008;48.682;9.016;2023-11-21T12:09:26;8.60;99.90
3406;DHT22;10008;48.682;9.016;2023-11-21T12:11:53;8.60;99.90
3406;DHT22;10008;48.682;9.016;2023-11-21T12:14:22;8.60;99.90
3406;DHT22;10008;48.682;9.016;2023-11-21T12:16:49;8.60;99.90
3406;DHT22;10008;48.682;9.016;2023-11-21T12:19:14;8.70;99.90
3406;DHT22;10008;48.682;9.016;2023-11-21T12:21:40;8.60;99.90
3406;DHT22;10008;48.682;9.016;2023-11-21T12:24:14;8.60;99.90
3406;DHT22;10008;48.682;9.016;2023-11-21T12:26:42;8.60;99.90
3406;DHT22;10008;48.682;9.016;2023-11-21T12:29:08;8.60;99.90
3406;DHT22;10008;48.682;9.016;2023-11-21T12:31:34;8.70;99.90
3406;DHT22;10008;48.682;9.016;2023-11-21T12:34:00;8.80;99.90
3406;DHT22;10008;48.682;9.016;2023-11-21T12:36:26;8.90;99.90
3406;DHT22;10008;48.682;9.016;2023-11-21T12:38:54;9.00;99.90
3406;DHT22;10008;48.682;9.016;2023-11-21T12:41:20;8.90;99.90
3406;DHT22;10008;48.682;9.016;2023-11-21T12:43:47;8.80;99.90
3406;DHT22;10008;48.682;9.016;2023-11-21T12:46:13;8.80;99.90
3406;DHT22;10008;48.682;9.016;2023-11-21T12:48:44;8.90;99.90
3406;DHT22;10008;48.682;9.016;2023-11-21T12:51:12;9.10;99.90
3406;DHT22;10008;48.682;9.016;2023-11-21T12:53:41;9.40;99.90
3406;DHT22;10008;48.682;9.016;2023-11-21T12:56:11;9.60;99.90
3406;DHT22;10008;48.682;9.016;2023-11-21T12:58:38;9.60;99.90
3406;DHT22;10008;48.682;9.016;2023-11-21T13:01:08;9.70;99.90
3406;DHT22;10008;48.682;9.016;2023-11-21T13:03:46;9.80;99.90
3406;DHT22;10008;48.682;9.016;2023-11-21T13:06:15;10.00;99.90
3406;DHT22;10008;48.682;9.016;2023-11-21T13:08:41;10.00;99.90
3406;DHT22;10008;48.682;9.016;2023-11-21T13:11:10;9.70;99.90
3406;DHT22;10008;48.682;9.016;2023-11-21T13:13:36;9.80;99.90
3406;DHT22;10008;48.682;9.016;2023-11-21T13:16:04;9.70;99.90
3406;DHT22;10008;48.682;9.016;2023-11-21T13:18:30;9.70;99.90
3406;DHT22;10008;48.682;9.016;2023-11-21T13:21:02;9.70;99.90
3406;DHT22;10008;48.682;9.016;2023-11-21T13:23:34;9.90;99.90
3406;DHT22;10008;48.682;9.016;2023-11-21T13:26:01;9.80;99.90
3406;DHT22;10008;48.682;9.016;2023-11-21T13:28:30;9.70;99.90
3406;DHT22;10008;48.682;9.016;2023-11-21T13:30:58;9.70;99.90
3406;DHT22;10008;48.682;9.016;2023-11-21T13:33:28;9.50;99.90
3406;DHT22;10008;48.682;9.016;2023-11-21T13:35:54;9.40;99.90
3406;DHT22;10008;48.682;9.016;2023-11-21T13:38:21;9.20;99.90
3406;DHT22;10008;48.682;9.016;2023-11-21T13:40:54;9.10;99.90
3406;DHT22;10008;48.682;9.016;2023-11-21T13:43:23;9.20;99.90
3406;DHT22;10008;48.682;9.016;2023-11-21T13:45:52;9.20;99.90
3406;DHT22;10008;48.682;9.016;2023-11-21T13:48:28;9.20;99.90
3406;DHT22;10008;48.682;9.016;2023-11-21T13:50:57;9.10;99.90
3406;DHT22;10008;48.682;9.016;2023-11-21T13:53:42;9.00;99.90
3406;DHT22;10008;48.682;9.016;2023-11-21T13:56:08;8.70;99.90
3406;DHT22;10008;48.682;9.016;2023-11-21T13:58:34;8.70;99.90
3406;DHT22;10008;48.682;9.016;2023-11-21T14:01:26;8.60;99.90
3406;DHT22;10008;48.682;9.016;2023-11-21T14:03:55;8.60;99.90
3406;DHT22;10008;48.682;9.016;2023-11-21T14:06:27;8.60;99.90
3406;DHT22;10008;48.682;9.016;2023-11-21T14:09:00;8.70;99.90
3406;DHT22;10008;48.682;9.016;2023-11-21T14:11:31;8.70;99.90
3406;DHT22;10008;48.682;9.016;2023-11-21T14:13:56;8.80;99.90
3406;DHT22;10008;48.682;9.016;2023-11-21T14:16:25;8.70;99.90
3406;DHT22;10008;48.682;9.016;2023-11-21T14:18:50;8.70;99.90
3406;DHT22;10008;48.682;9.016;2023-11-21T14:21:27;8.60;99.90
3406;DHT22;10008;48.682;9.016;2023-11-21T14:23:52;8.70;99.90
3406;DHT22;10008;48.682;9.016;2023-11-21T14:26:20;8.70;99.90
3406;DHT22;10008;48.682;9.016;2023-11-21T14:28:46;8.70;99.90
3406;DHT22;10008;48.682;9.016;2023-11-21T14:31:14;8.80;99.90
3406;DHT22;10008;48.682;9.016;2023-11-21T14:33:46;8.70;99.90
3406;DHT22;10008;48.682;9.016;2023-11-21T14:36:11;8.70;99.90
3406;DHT22;10008;48.682;9.016;2023-11-21T14:38:37;8.70;99.90
3406;DHT22;10008;48.682;9.016;2023-11-21T14:41:05;8.70;99.90
3406;DHT22;10008;48.682;9.016;2023-11-21T14:43:37;8.70;99.90
3406;DHT22;10008;48.682;9.016;2023-11-21T14:46:04;8.70;99.90
3406;DHT22;10008;48.682;9.016;2023-11-21T14:48:34;8.70;99.90
3406;DHT22;10008;48.682;9.016;2023-11-21T14:51:12;8.60;99.90
3406;DHT22;10008;48.682;9.016;2023-11-21T14:53:37;8.60;99.90
3406;DHT22;10008;48.682;9.016;2023-11-21T14:56:22;8.50;99.90
3406;DHT22;10008;48.682;9.016;2023-11-21T14:58:57;8.50;99.90
3406;DHT22;10008;48.682;9.016;2023-11-21T15:01:25;8.60;99.90
3406;DHT22;10008;48.682;9.016;2023-11-21T15:04:10;8.60;99.90
3406;DHT22;10008;48.682;9.016;2023-11-21T15:06:47;8.60;99.90
3406;DHT22;10008;48.682;9.016;2023-11-21T15:09:13;8.70;99.90
3406;DHT22;10008;48.682;9.016;2023-11-21T15:11:39;8.70;99.90
3406;DHT22;10008;48.682;9.016;2023-11-21T15:14:05;8.60;99.90
3406;DHT22;10008;48.682;9.016;2023-11-21T15:16:34;8.60;99.90
3406;DHT22;10008;48.682;9.016;2023-11-21T15:19:04;8.60;99.90
3406;DHT22;10008;48.682;9.016;2023-11-21T15:21:31;8.60;99.90
3406;DHT22;10008;48.682;9.016;2023-11-21T15:23:58;8.50;99.90
3406;DHT22;10008;48.682;9.016;2023-11-21T15:26:24;8.60;99.90
3406;DHT22;10008;48.682;9.016;2023-11-21T15:28:49;8.50;99.90
3406;DHT22;10008;48.682;9.016;2023-11-21T15:31:15;8.50;99.90
3406;DHT22;10008;48.682;9.016;2023-11-21T15:33:45;8.50;99.90
3406;DHT22;10008;48.682;9.016;2023-11-21T15:36:11;8.50;99.90
3406;DHT22;10008;48.682;9.016;2023-11-21T15:38:38;8.50;99.90
3406;DHT22;10008;48.682;9.016;2023-11-21T15:41:04;8.40;99.90
3406;DHT22;10008;48.682;9.016;2023-11-21T15:43:32;8.50;99.90
3406;DHT22;10008;48.682;9.016;2023-11-21T15:45:58;8.40;99.90
3406;DHT22;10008;48.682;9.016;2023-11-21T15:48:24;8.40;99.90
3406;DHT22;10008;48.682;9.016;2023-11-21T15:50:51;8.30;99.90
3406;DHT22;10008;48.682;9.016;2023-11-21T15:53:17;8.20;99.90
3406;DHT22;10008;48.682;9.016;2023-11-21T15:55:43;8.20;99.90
3406;DHT22;10008;48.682;9.016;2023-11-21T15:58:09;8.20;99.90
3406;DHT22;10008;48.682;9.016;2023-11-21T16:00:35;8.20;99.90
3406;DHT22;10008;48.682;9.016;2023-11-21T16:03:00;8.10;99.90
3406;DHT22;10008;48.682;9.016;2023-11-21T16:05:27;8.00;99.90
3406;DHT22;10008;48.682;9.016;2023-11-21T16:07:53;8.00;99.90
3406;DHT22;10008;48.682;9.016;2023-11-21T16:10:20;7.90;99.90
3406;DHT22;10008;48.682;9.016;2023-11-21T16:12:45;7.90;99.90
3406;DHT22;10008;48.682;9.016;2023-11-21T16:15:11;7.90;99.90
3406;DHT22;10008;48.682;9.016;2023-11-21T16:17:38;7.90;99.90
3406;DHT22;10008;48.682;9.016;2023-11-21T16:20:05;7.90;99.90
3406;DHT22;10008;48.682;9.016;2023-11-21T16:22:39;7.90;99.90